Pagrindinis puslapis
METAR-TAF:

METAR-TAF

Oro uostai :

Medina, Saudo Arabija

platuma: 24-33N, ilguma: 039-42E, Aukštis: 654 m

Dabartinis oras

Ataskaita buvo paskelbta 57 minutes, ne 10:00 UTC
Vėjas 7 kt iš Pietų
Temperatūra 41°C
Drėgmė 8%
Slėgis 1011 hPa
Matomumas 10 km arba daugiau
nėra debesų žemiau 1500 m ir nėra kamuolinių lietaus debesų

METAR: OEMA 311000Z 19007KT CAVOK 41/01 Q1011 NOSIG

Laikas: 13:57 (10:57 UTC)

Prognozė

Ataskaita buvo paskelbta 11 valandos ir 47 minutes, ne 23:10 UTC
Prognozė galioja nuo 31 metu 00 UTC su 01 metu 06 UTC
Vėjas 3 kt nuo kintamojo kryptimis
Matomumas 10 km arba daugiau
nėra debesų žemiau 1500 m ir nėra kamuolinių lietaus debesų
Tapsmas
nuo 31 metu 06 UTC su 31 metu 08 UTC
Vėjas 16 kt iš Vakarų/Pietvakarių

TAF: OEMA 302310Z 3100/0106 VRB03KT CAVOK BECMG 3106/3108 24016KT

Orai ataskaitas ir orų prognozės (METAR, TAF).

turimą stotys yra geltonos ir raudonos taškus žemėlapyje.

Perkelti pele per norėdami pamatyti stoties vardą.

Tada spustelėkite, norėdami matyti oro stebėjimo ir prognozės.

Norėdami pakeisti žemėlapį: spustelėkite ant žalios mygtukų su juodo kryžiaus žemyn,; žalią mygtuką su brūkšneliu, jei norite nutolinti; arba žalių rodyklių gretimoms žemėlapius.


METAR-TAF: